Time;durP1;ratioP1;P1;durP2;ratioP2;P2;SDS_P1;SDS_P2;PMS_P1;PMS_P2;Temp;Humidity;BMP_temperature;BMP_pressure;BME280_temperature;BME280_humidity;BME280_pressure;Samples;Min_cycle;Max_cycle;Signal;HPM_P1;HPM_P2
2023/04/01 00:01:39;;;;;;;4.53;1.50;;;10.60;99.90;;;;;;5027773;28;20436;-76
2023/04/01 00:04:05;;;;;;;3.17;1.53;;;10.60;99.90;;;;;;5033378;28;20808;-74
2023/04/01 00:06:30;;;;;;;3.13;2.03;;;10.60;99.90;;;;;;5043857;28;20827;-74
2023/04/01 00:08:56;;;;;;;2.63;1.30;;;10.60;99.90;;;;;;5027539;28;20187;-74
2023/04/01 00:11:22;;;;;;;1.17;1.00;;;10.60;99.90;;;;;;5026464;28;20822;-73
2023/04/01 00:13:48;;;;;;;1.87;1.33;;;10.50;99.90;;;;;;5026454;28;20647;-74
2023/04/01 00:16:14;;;;;;;1.60;1.00;;;10.60;99.90;;;;;;5038014;28;20479;-74
2023/04/01 00:18:40;;;;;;;3.20;1.63;;;10.60;99.90;;;;;;5029342;28;20210;-74
2023/04/01 00:21:06;;;;;;;2.03;1.20;;;10.60;99.90;;;;;;5026385;28;20186;-74
2023/04/01 00:23:32;;;;;;;2.30;1.80;;;10.60;99.90;;;;;;5027231;28;21031;-73
2023/04/01 00:26:03;;;;;;;1.60;1.10;;;10.70;99.90;;;;;;5024146;28;20518;-75
2023/04/01 00:28:28;;;;;;;1.77;1.33;;;10.60;99.90;;;;;;5050938;28;20429;-73
2023/04/01 00:30:54;;;;;;;3.83;1.60;;;10.50;99.90;;;;;;5036020;28;20423;-73
2023/04/01 00:33:20;;;;;;;2.90;1.27;;;10.50;99.90;;;;;;5047421;28;20432;-73
2023/04/01 00:35:46;;;;;;;1.70;1.30;;;10.60;99.90;;;;;;5039841;28;20201;-73
2023/04/01 00:38:12;;;;;;;1.50;1.40;;;10.60;99.90;;;;;;5030889;28;20477;-73
2023/04/01 00:40:45;;;;;;;1.60;1.40;;;10.60;99.90;;;;;;5031034;28;20778;-73
2023/04/01 00:43:14;;;;;;;3.50;1.30;;;10.60;99.90;;;;;;5030919;28;20417;-73
2023/04/01 00:45:42;;;;;;;3.13;1.50;;;10.70;99.90;;;;;;5032563;28;20453;-74
2023/04/01 00:48:12;;;;;;;3.47;1.50;;;10.60;99.90;;;;;;5035403;28;20413;-73
2023/04/01 00:50:42;;;;;;;2.07;1.10;;;10.60;99.90;;;;;;5029252;28;20401;-73
2023/04/01 00:53:08;;;;;;;4.17;1.40;;;10.60;99.90;;;;;;5043511;28;20411;-73
2023/04/01 00:55:38;;;;;;;1.67;1.10;;;10.60;99.90;;;;;;5030826;28;20459;-73
2023/04/01 00:58:07;;;;;;;2.40;1.40;;;10.60;99.90;;;;;;5038789;28;20816;-73
2023/04/01 01:00:34;;;;;;;1.50;1.40;;;10.50;99.90;;;;;;5031617;28;20436;-74
2023/04/01 01:03:02;;;;;;;1.80;1.20;;;10.60;99.90;;;;;;5029288;28;20416;-73
2023/04/01 01:05:53;;;;;;;1.30;1.20;;;10.60;99.90;;;;;;5030597;28;20413;-76
2023/04/01 01:08:26;;;;;;;2.20;1.10;;;10.60;99.90;;;;;;5025003;28;20792;-73
2023/04/01 01:10:57;;;;;;;2.93;1.07;;;10.50;99.90;;;;;;5027080;28;20424;-73
2023/04/01 01:13:34;;;;;;;2.80;1.43;;;10.50;99.90;;;;;;5030844;28;20505;-73
2023/04/01 01:16:30;;;;;;;1.70;1.10;;;10.60;99.90;;;;;;5030692;28;20236;-75
2023/04/01 01:19:16;;;;;;;0.80;0.70;;;10.50;99.90;;;;;;5003741;28;20444;-73
2023/04/01 01:21:59;;;;;;;1.70;1.10;;;10.60;99.90;;;;;;5029514;28;20441;-76
2023/04/01 01:24:42;;;;;;;1.97;1.30;;;10.50;99.90;;;;;;5025376;28;20418;-73
2023/04/01 01:27:13;;;;;;;1.33;1.20;;;10.50;99.90;;;;;;5023884;28;20511;-75
2023/04/01 01:30:00;;;;;;;2.23;1.13;;;10.50;99.90;;;;;;5039757;28;20528;-73
2023/04/01 01:32:43;;;;;;;2.20;1.60;;;10.40;99.90;;;;;;5030497;28;20413;-74
2023/04/01 01:35:33;;;;;;;2.40;1.57;;;10.40;99.90;;;;;;5030621;28;20437;-75
2023/04/01 01:38:05;;;;;;;1.63;1.10;;;10.50;99.90;;;;;;5041090;28;20404;-73
2023/04/01 01:40:34;;;;;;;2.50;1.30;;;10.50;99.90;;;;;;5034456;28;20424;-75
2023/04/01 01:43:08;;;;;;;2.03;1.40;;;10.50;99.90;;;;;;5029802;28;20421;-74
2023/04/01 01:45:39;;;;;;;1.43;1.10;;;10.50;99.90;;;;;;5034512;28;20414;-73
2023/04/01 01:48:08;;;;;;;1.33;1.10;;;10.50;99.90;;;;;;5035826;28;20966;-75
2023/04/01 01:50:36;;;;;;;1.83;0.80;;;10.50;99.90;;;;;;5030487;28;20464;-76
2023/04/01 01:53:08;;;;;;;1.43;1.00;;;10.50;99.90;;;;;;5026152;28;20420;-73
2023/04/01 01:55:40;;;;;;;1.53;1.03;;;10.50;99.90;;;;;;5028388;28;20510;-72
2023/04/01 01:58:40;;;;;;;1.33;1.03;;;10.50;99.90;;;;;;5040801;28;20409;-76
2023/04/01 02:01:09;;;;;;;3.40;1.20;;;10.50;99.90;;;;;;5023688;28;20425;-73
2023/04/01 02:03:38;;;;;;;1.37;1.17;;;10.50;99.90;;;;;;5042619;28;20421;-75
2023/04/01 02:06:08;;;;;;;1.20;1.10;;;10.50;99.90;;;;;;5040898;28;21018;-75
2023/04/01 02:08:40;;;;;;;1.57;0.97;;;10.60;99.90;;;;;;5030481;28;20437;-73
2023/04/01 02:11:10;;;;;;;1.70;1.20;;;10.50;99.90;;;;;;5043676;28;20434;-75
2023/04/01 02:13:49;;;;;;;2.00;1.30;;;10.50;99.90;;;;;;5029240;28;20422;-73
2023/04/01 02:16:22;;;;;;;1.57;1.30;;;10.40;99.90;;;;;;5039237;28;20478;-76
2023/04/01 02:18:51;;;;;;;1.93;1.00;;;10.40;99.90;;;;;;5029621;28;20874;-75
2023/04/01 02:21:19;;;;;;;1.63;1.10;;;10.50;99.90;;;;;;5024820;28;20922;-76
2023/04/01 02:23:46;;;;;;;2.60;1.10;;;10.40;99.90;;;;;;5044159;28;20481;-75
2023/04/01 02:26:14;;;;;;;1.40;1.00;;;10.40;99.90;;;;;;5026664;28;20555;-75
2023/04/01 02:28:42;;;;;;;1.70;1.20;;;10.50;99.90;;;;;;5037344;28;20456;-75
2023/04/01 02:31:10;;;;;;;1.40;1.20;;;10.50;99.90;;;;;;5034850;28;20440;-76
2023/04/01 02:33:38;;;;;;;1.40;1.13;;;10.50;99.90;;;;;;5030857;28;20421;-75
2023/04/01 02:36:04;;;;;;;2.20;1.40;;;10.50;99.90;;;;;;5031445;28;20412;-75
2023/04/01 02:38:30;;;;;;;2.80;1.30;;;10.50;99.90;;;;;;5034902;28;20972;-76
2023/04/01 02:41:00;;;;;;;1.73;1.07;;;10.50;99.90;;;;;;5034170;28;20417;-75
2023/04/01 02:43:27;;;;;;;2.37;1.10;;;10.50;99.90;;;;;;5030822;28;20271;-75
2023/04/01 02:45:53;;;;;;;1.93;0.90;;;10.50;99.90;;;;;;5011132;28;20820;-75
2023/04/01 02:48:19;;;;;;;1.30;1.10;;;10.50;99.90;;;;;;5029877;28;20441;-76
2023/04/01 02:50:45;;;;;;;1.00;0.80;;;10.40;99.90;;;;;;5032241;28;20424;-75
2023/04/01 02:53:11;;;;;;;0.93;0.80;;;10.40;99.90;;;;;;5028166;28;20192;-75
2023/04/01 02:55:37;;;;;;;1.23;0.63;;;10.40;99.90;;;;;;5028786;28;20885;-75
2023/04/01 02:58:03;;;;;;;2.40;0.93;;;10.40;99.90;;;;;;5034236;28;20441;-76
2023/04/01 03:00:28;;;;;;;1.00;0.60;;;10.40;99.90;;;;;;5034355;28;20186;-76
2023/04/01 03:02:54;;;;;;;1.77;0.70;;;10.40;99.90;;;;;;5038270;28;20209;-76
2023/04/01 03:05:20;;;;;;;0.73;0.53;;;10.30;99.90;;;;;;5042394;28;20557;-75
2023/04/01 03:07:46;;;;;;;1.53;0.80;;;10.30;99.90;;;;;;5043145;28;20655;-75
2023/04/01 03:10:12;;;;;;;1.00;0.60;;;10.40;99.90;;;;;;5034947;28;20454;-75
2023/04/01 03:12:38;;;;;;;0.90;0.70;;;10.40;99.90;;;;;;5028701;28;20429;-76
2023/04/01 03:15:05;;;;;;;0.90;0.63;;;10.40;99.90;;;;;;5028553;28;20432;-76
2023/04/01 03:17:30;;;;;;;2.67;0.40;;;10.40;99.90;;;;;;5028686;28;20170;-76
2023/04/01 03:19:56;;;;;;;0.70;0.40;;;10.30;99.90;;;;;;5028956;28;20464;-76
2023/04/01 03:22:22;;;;;;;0.70;0.60;;;10.40;99.90;;;;;;5028947;28;20273;-75
2023/04/01 03:24:48;;;;;;;1.40;0.63;;;10.30;99.90;;;;;;5028736;28;20213;-76
2023/04/01 03:27:14;;;;;;;0.70;0.60;;;10.30;99.90;;;;;;5028601;28;20683;-74
2023/04/01 03:29:40;;;;;;;0.70;0.57;;;10.40;99.90;;;;;;5027312;28;20441;-75
2023/04/01 03:32:06;;;;;;;2.10;0.77;;;10.30;99.90;;;;;;5028724;28;20907;-75
2023/04/01 03:34:32;;;;;;;0.67;0.57;;;10.40;99.90;;;;;;5028482;28;20413;-76
2023/04/01 03:36:58;;;;;;;2.60;0.80;;;10.40;99.90;;;;;;5027187;28;20409;-76
2023/04/01 03:39:23;;;;;;;1.47;0.40;;;10.40;99.90;;;;;;5028145;28;20214;-75
2023/04/01 03:41:49;;;;;;;1.43;0.60;;;10.40;99.90;;;;;;5035001;28;20642;-76
2023/04/01 03:44:15;;;;;;;1.47;0.70;;;10.40;99.90;;;;;;5034503;28;20312;-75
2023/04/01 03:46:40;;;;;;;0.73;0.60;;;10.40;99.90;;;;;;5033008;28;20308;-75
2023/04/01 03:49:14;;;;;;;1.50;0.70;;;10.40;99.90;;;;;;5028318;28;20552;-76
2023/04/01 03:51:41;;;;;;;1.13;0.77;;;10.30;99.90;;;;;;5028499;28;20265;-76
2023/04/01 03:54:08;;;;;;;0.80;0.80;;;10.30;99.90;;;;;;5028315;28;20413;-75
2023/04/01 03:56:33;;;;;;;1.43;1.00;;;10.30;99.90;;;;;;5028807;28;20462;-75
2023/04/01 03:59:03;;;;;;;0.80;0.80;;;10.30;99.90;;;;;;5028047;28;20472;-76
2023/04/01 04:01:29;;;;;;;1.33;0.90;;;10.30;99.90;;;;;;5032276;28;20189;-75
2023/04/01 04:03:56;;;;;;;1.07;0.97;;;10.30;99.90;;;;;;5036530;28;20413;-75
2023/04/01 04:06:22;;;;;;;1.23;1.00;;;10.30;99.90;;;;;;5031106;28;20519;-75
2023/04/01 04:08:47;;;;;;;1.40;1.10;;;10.30;99.90;;;;;;5032066;28;20789;-75
2023/04/01 04:11:13;;;;;;;2.50;1.70;;;10.30;99.90;;;;;;5031968;28;20405;-75
2023/04/01 04:13:39;;;;;;;1.77;1.10;;;10.30;99.90;;;;;;5031799;28;20174;-75
2023/04/01 04:16:05;;;;;;;1.33;1.07;;;10.30;99.90;;;;;;5037217;28;20205;-75
2023/04/01 04:18:31;;;;;;;1.87;1.17;;;10.30;99.90;;;;;;5038781;28;20444;-76
2023/04/01 04:20:57;;;;;;;1.67;1.00;;;10.20;99.90;;;;;;5031798;28;20409;-75
2023/04/01 04:23:22;;;;;;;0.80;0.70;;;10.30;99.90;;;;;;5031578;28;20274;-76
2023/04/01 04:26:00;;;;;;;1.20;0.87;;;10.30;99.90;;;;;;5016994;28;20203;-76
2023/04/01 04:28:26;;;;;;;1.23;0.70;;;10.20;99.90;;;;;;5010565;28;20270;-75
2023/04/01 04:30:53;;;;;;;1.50;0.90;;;10.20;99.90;;;;;;5010709;28;20826;-75
2023/04/01 04:33:19;;;;;;;1.83;0.90;;;10.30;99.90;;;;;;5011762;28;20768;-76
2023/04/01 04:35:45;;;;;;;1.67;1.00;;;10.30;99.90;;;;;;5039542;28;20421;-75
2023/04/01 04:38:11;;;;;;;1.00;0.90;;;10.30;99.90;;;;;;5046754;28;20475;-75
2023/04/01 04:40:37;;;;;;;1.40;0.87;;;10.30;99.90;;;;;;5037628;28;20558;-75
2023/04/01 04:43:03;;;;;;;1.20;1.20;;;10.30;99.90;;;;;;5050978;28;20185;-75
2023/04/01 04:45:29;;;;;;;1.67;1.03;;;10.40;99.90;;;;;;5032767;28;20448;-75
2023/04/01 04:47:56;;;;;;;1.57;1.47;;;10.40;99.90;;;;;;5031254;28;20513;-75
2023/04/01 04:50:21;;;;;;;3.17;1.10;;;10.30;99.90;;;;;;5031342;28;20417;-75
2023/04/01 04:52:47;;;;;;;1.50;1.40;;;10.30;99.90;;;;;;5031702;28;20405;-76
2023/04/01 04:55:14;;;;;;;1.33;1.23;;;10.30;99.90;;;;;;5031214;28;20175;-75
2023/04/01 04:57:40;;;;;;;1.00;0.70;;;10.30;99.90;;;;;;5031045;28;20185;-75
2023/04/01 05:00:07;;;;;;;1.20;0.80;;;10.30;99.90;;;;;;5035551;28;20437;-75
2023/04/01 05:02:34;;;;;;;1.50;0.63;;;10.30;99.90;;;;;;5046439;28;20428;-75
2023/04/01 05:05:00;;;;;;;0.80;0.80;;;10.30;99.90;;;;;;5050800;28;20409;-75
2023/04/01 05:07:25;;;;;;;1.27;0.80;;;10.30;99.90;;;;;;5049505;28;20463;-75
2023/04/01 05:09:51;;;;;;;1.10;1.00;;;10.40;99.90;;;;;;5051019;28;20644;-76
2023/04/01 05:12:17;;;;;;;0.70;0.70;;;10.40;99.90;;;;;;5051375;28;20180;-75
2023/04/01 05:14:42;;;;;;;1.47;1.00;;;10.40;99.90;;;;;;5050504;28;20178;-75
2023/04/01 05:17:12;;;;;;;1.00;0.90;;;10.40;99.90;;;;;;5050951;28;20188;-75
2023/04/01 05:19:39;;;;;;;0.90;0.83;;;10.40;99.90;;;;;;5050627;28;20204;-75
2023/04/01 05:22:05;;;;;;;1.20;1.00;;;10.40;99.90;;;;;;5050899;28;20420;-75
2023/04/01 05:24:32;;;;;;;1.20;1.10;;;10.40;99.90;;;;;;5050336;28;20818;-75
2023/04/01 05:26:58;;;;;;;1.40;1.17;;;10.40;99.90;;;;;;5050603;28;20539;-75
2023/04/01 05:29:25;;;;;;;0.90;0.90;;;10.30;99.90;;;;;;5049194;28;20429;-75
2023/04/01 05:31:50;;;;;;;1.30;1.20;;;10.30;99.90;;;;;;5050546;28;20444;-75
2023/04/01 05:34:16;;;;;;;1.43;0.90;;;10.30;99.90;;;;;;5049132;28;20417;-75
2023/04/01 05:36:42;;;;;;;1.20;1.10;;;10.40;99.90;;;;;;5049373;28;20169;-75
2023/04/01 05:39:08;;;;;;;1.00;1.00;;;10.40;99.90;;;;;;5052740;22;20277;-79
2023/04/01 05:41:38;;;;;;;1.10;1.10;;;10.40;99.90;;;;;;5014459;28;20429;-77
2023/04/01 05:44:05;;;;;;;1.17;1.07;;;10.40;99.90;;;;;;5006800;28;20490;-79
2023/04/01 05:46:31;;;;;;;1.40;1.30;;;10.40;99.90;;;;;;5009980;28;20497;-78
2023/04/01 05:48:57;;;;;;;1.00;0.90;;;10.40;99.90;;;;;;5009238;28;21046;-78
2023/04/01 05:51:23;;;;;;;1.10;1.00;;;10.40;99.90;;;;;;5019500;28;20509;-79
2023/04/01 05:53:49;;;;;;;1.30;0.90;;;10.40;99.90;;;;;;5012843;28;20171;-77
2023/04/01 05:56:15;;;;;;;1.33;1.10;;;10.40;99.90;;;;;;5014838;28;20406;-81
2023/04/01 05:58:41;;;;;;;1.30;1.20;;;10.40;99.90;;;;;;5014736;28;20206;-80
2023/04/01 06:01:09;;;;;;;1.20;0.80;;;10.40;99.90;;;;;;5029158;28;20422;-80
2023/04/01 06:03:35;;;;;;;0.80;0.80;;;10.40;99.90;;;;;;5014318;28;20205;-78
2023/04/01 06:06:01;;;;;;;1.00;1.00;;;10.40;99.90;;;;;;5013635;28;20480;-78
2023/04/01 06:08:29;;;;;;;1.13;1.03;;;10.40;99.90;;;;;;5012021;28;20507;-77
2023/04/01 06:11:10;;;;;;;1.00;0.77;;;10.40;99.90;;;;;;5010957;28;20306;-78
2023/04/01 06:14:03;;;;;;;1.23;1.13;;;10.40;99.90;;;;;;5008338;28;20524;-76
2023/04/01 06:16:51;;;;;;;1.67;0.70;;;10.40;99.90;;;;;;5014812;28;20457;-78
2023/04/01 06:19:24;;;;;;;0.97;0.97;;;10.40;99.90;;;;;;5021434;28;20457;-78
2023/04/01 06:22:04;;;;;;;1.40;0.97;;;10.40;99.90;;;;;;5022207;28;20484;-79
2023/04/01 06:24:39;;;;;;;1.30;0.87;;;10.40;99.90;;;;;;5009208;28;20483;-78
2023/04/01 06:27:16;;;;;;;1.10;0.93;;;10.50;99.90;;;;;;4994004;28;20458;-79
2023/04/01 06:29:44;;;;;;;1.60;0.90;;;10.50;99.90;;;;;;4994173;28;20431;-78
2023/04/01 06:32:37;;;;;;;0.80;0.80;;;10.50;99.90;;;;;;4994252;28;20415;-77
2023/04/01 06:35:32;;;;;;;0.97;0.80;;;10.60;99.90;;;;;;4993267;28;20821;-76
2023/04/01 06:38:12;;;;;;;0.93;0.87;;;10.50;99.90;;;;;;4986030;28;20950;-77
2023/04/01 06:40:41;;;;;;;0.90;0.80;;;10.50;99.90;;;;;;5015019;28;20430;-78
2023/04/01 06:43:47;;;;;;;1.00;0.93;;;10.50;99.90;;;;;;5018137;28;20986;-76
2023/04/01 06:46:24;;;;;;;4.00;1.53;;;10.50;99.90;;;;;;4978325;28;20509;-78
2023/04/01 06:49:11;;;;;;;0.80;0.70;;;10.50;99.90;;;;;;4991764;28;20435;-79
2023/04/01 06:52:29;;;;;;;1.10;1.00;;;10.40;99.90;;;;;;5040918;28;20412;-78
2023/04/01 06:55:38;;;;;;;1.50;0.90;;;10.40;99.90;;;;;;5029112;28;20545;-79
2023/04/01 06:58:10;;;;;;;0.80;0.80;;;10.40;99.90;;;;;;5015954;28;20430;-80
2023/04/01 07:00:40;;;;;;;1.47;1.37;;;10.40;99.90;;;;;;5020000;28;20421;-79
2023/04/01 07:03:34;;;;;;;1.10;0.83;;;10.50;99.90;;;;;;5013314;28;20464;-80
2023/04/01 07:06:05;;;;;;;1.07;0.97;;;10.50;99.90;;;;;;5012230;28;20465;-78
2023/04/01 07:08:37;;;;;;;1.30;1.20;;;10.40;99.90;;;;;;5012614;28;20510;-79
2023/04/01 07:11:06;;;;;;;1.47;1.30;;;10.40;99.90;;;;;;5011127;28;20421;-79
2023/04/01 07:13:39;;;;;;;1.07;0.97;;;10.50;99.90;;;;;;4993673;28;20655;-79
2023/04/01 07:16:20;;;;;;;1.93;1.30;;;10.50;99.90;;;;;;5016314;28;20533;-79
2023/04/01 07:18:54;;;;;;;1.73;1.40;;;10.50;99.90;;;;;;5021299;28;20445;-77
2023/04/01 07:21:29;;;;;;;1.83;1.40;;;10.50;99.90;;;;;;5028017;28;20423;-77
2023/04/01 07:24:00;;;;;;;1.80;1.13;;;10.50;99.90;;;;;;5011792;28;20425;-78
2023/04/01 07:26:26;;;;;;;1.90;1.60;;;10.60;99.90;;;;;;5012122;28;20461;-78
2023/04/01 07:28:53;;;;;;;1.90;1.50;;;10.50;99.90;;;;;;5016674;28;20803;-79
2023/04/01 07:31:22;;;;;;;1.30;1.17;;;10.50;99.90;;;;;;5008472;28;20410;-78
2023/04/01 07:34:17;;;;;;;1.10;1.00;;;10.60;99.90;;;;;;5005884;28;20430;-78
2023/04/01 07:36:52;;;;;;;1.20;1.00;;;10.60;99.90;;;;;;5011871;28;20426;-78
2023/04/01 07:39:36;;;;;;;1.80;1.20;;;10.50;99.90;;;;;;5013227;28;20515;-80
2023/04/01 07:42:20;;;;;;;1.10;1.00;;;10.60;99.90;;;;;;4997925;28;20422;-80
2023/04/01 07:45:27;;;;;;;1.97;1.30;;;10.60;99.90;;;;;;5017629;28;20436;-80
2023/04/01 07:48:26;;;;;;;1.70;0.93;;;10.60;99.90;;;;;;5018052;28;20862;-77
2023/04/01 07:51:06;;;;;;;1.17;1.07;;;10.60;99.90;;;;;;5021888;28;20917;-79
2023/04/01 07:53:40;;;;;;;1.20;1.10;;;10.60;99.90;;;;;;5018978;28;20971;-78
2023/04/01 07:56:28;;;;;;;1.43;1.10;;;10.50;99.90;;;;;;5031551;28;20507;-80
2023/04/01 07:59:06;;;;;;;0.97;0.87;;;10.60;99.90;;;;;;5031114;28;20434;-79
2023/04/01 08:01:45;;;;;;;1.20;1.10;;;10.60;99.90;;;;;;5013876;28;20409;-77
2023/04/01 08:04:27;;;;;;;1.30;1.20;;;10.60;99.90;;;;;;5013865;28;20765;-81
2023/04/01 08:06:58;;;;;;;1.40;1.30;;;10.60;99.90;;;;;;5015219;28;20523;-80
2023/04/01 08:09:32;;;;;;;2.23;1.50;;;10.60;99.90;;;;;;5021740;28;20525;-80
2023/04/01 08:12:04;;;;;;;1.30;1.20;;;10.60;99.90;;;;;;5046914;28;20424;-78
2023/04/01 08:15:04;;;;;;;1.40;1.27;;;10.60;99.90;;;;;;5035113;28;20980;-80
2023/04/01 08:17:35;;;;;;;1.30;1.20;;;10.60;99.90;;;;;;5033348;28;20403;-80
2023/04/01 08:20:48;;;;;;;2.47;1.30;;;10.60;99.90;;;;;;5035156;28;21012;-77
2023/04/01 08:23:25;;;;;;;1.60;1.30;;;10.60;99.90;;;;;;4979527;28;20426;-80
2023/04/01 08:26:20;;;;;;;1.50;1.40;;;10.50;99.90;;;;;;4965057;28;20417;-80
2023/04/01 08:28:52;;;;;;;1.40;1.30;;;10.60;99.90;;;;;;5008834;28;20430;-78
2023/04/01 08:31:42;;;;;;;1.37;1.27;;;10.50;99.90;;;;;;5015175;28;20421;-78
2023/04/01 08:34:25;;;;;;;1.73;1.63;;;10.50;99.90;;;;;;5015173;28;20417;-78
2023/04/01 08:37:02;;;;;;;1.80;1.50;;;10.60;99.90;;;;;;5019848;28;20419;-79
2023/04/01 08:39:30;;;;;;;2.00;1.83;;;10.50;99.90;;;;;;5024055;28;20496;-80
2023/04/01 08:42:24;;;;;;;1.90;1.80;;;10.60;99.90;;;;;;5033299;28;20417;-78
2023/04/01 08:45:05;;;;;;;1.80;1.67;;;10.60;99.90;;;;;;5022164;28;21014;-78
2023/04/01 08:47:59;;;;;;;1.97;1.67;;;10.50;99.90;;;;;;5012563;28;20479;-81
2023/04/01 08:50:49;;;;;;;1.83;1.73;;;10.60;99.90;;;;;;5012713;28;20782;-80
2023/04/01 08:53:27;;;;;;;2.23;2.03;;;10.60;99.90;;;;;;4998085;28;20433;-80
2023/04/01 08:56:20;;;;;;;2.43;2.23;;;10.60;99.90;;;;;;5025718;28;20420;-80
2023/04/01 08:59:20;;;;;;;3.30;2.97;;;10.60;99.90;;;;;;5018707;28;20485;-80
2023/04/01 09:02:20;;;;;;;2.70;2.10;;;10.60;99.90;;;;;;5014459;28;21141;-77
2023/04/01 09:04:58;;;;;;;2.40;2.20;;;10.50;99.90;;;;;;5021034;28;20480;-75
2023/04/01 09:07:36;;;;;;;2.73;2.40;;;10.60;99.90;;;;;;5016275;28;20790;-79
2023/04/01 09:10:25;;;;;;;2.40;2.20;;;10.60;99.90;;;;;;5033634;28;20775;-78
2023/04/01 09:13:10;;;;;;;2.27;2.07;;;10.60;99.90;;;;;;5033754;28;20440;-80
2023/04/01 09:15:55;;;;;;;2.03;1.90;;;10.60;99.90;;;;;;5032365;28;20929;-78
2023/04/01 09:18:49;;;;;;;2.60;2.20;;;10.60;99.90;;;;;;5031882;28;20433;-79
2023/04/01 09:21:36;;;;;;;2.63;2.43;;;10.70;99.90;;;;;;5032513;28;20504;-78
2023/04/01 09:24:44;;;;;;;2.83;2.63;;;10.60;99.90;;;;;;5033123;28;20401;-79
2023/04/01 09:27:32;;;;;;;3.90;3.60;;;10.60;99.90;;;;;;4993949;28;20473;-80
2023/04/01 09:30:16;;;;;;;2.83;2.63;;;10.70;99.90;;;;;;5015597;28;20449;-80
2023/04/01 09:33:03;;;;;;;2.60;2.40;;;10.70;99.90;;;;;;5013358;28;20420;-79
2023/04/01 09:35:54;;;;;;;3.30;3.00;;;10.60;99.90;;;;;;5038660;28;20760;-80
2023/04/01 09:38:50;;;;;;;4.37;3.60;;;10.60;99.90;;;;;;5034527;28;20416;-80
2023/04/01 09:41:32;;;;;;;5.27;4.20;;;10.60;99.90;;;;;;5003420;28;20430;-79
2023/04/01 09:44:11;;;;;;;4.27;3.87;;;10.60;99.90;;;;;;5004210;28;20586;-81
2023/04/01 09:46:46;;;;;;;4.73;4.30;;;10.60;99.90;;;;;;5027194;28;20452;-79
2023/04/01 09:49:49;;;;;;;4.50;4.10;;;10.60;99.90;;;;;;5033838;28;20442;-81
2023/04/01 09:52:21;;;;;;;5.07;4.60;;;10.70;99.90;;;;;;5034837;28;20401;-80
2023/04/01 09:54:58;;;;;;;5.93;5.33;;;10.70;99.90;;;;;;5011182;28;20857;-81
2023/04/01 09:57:54;;;;;;;5.80;5.13;;;10.70;99.90;;;;;;5009598;28;20449;-78
2023/04/01 10:00:48;;;;;;;6.50;5.70;;;10.70;99.90;;;;;;5038509;28;20522;-81
2023/04/01 10:03:43;;;;;;;6.40;5.80;;;10.70;99.90;;;;;;5014607;28;20418;-80
2023/04/01 10:06:24;;;;;;;6.80;6.10;;;10.70;99.90;;;;;;5033390;28;20551;-81
2023/04/01 10:09:12;;;;;;;5.83;5.23;;;10.80;99.90;;;;;;5032968;28;20448;-79
2023/04/01 10:11:57;;;;;;;6.13;5.53;;;10.80;99.90;;;;;;5032391;28;20509;-80
2023/04/01 10:14:31;;;;;;;6.43;5.83;;;10.90;99.90;;;;;;5032928;28;20505;-78
2023/04/01 10:17:26;;;;;;;7.27;6.10;;;10.90;99.90;;;;;;5031285;28;20500;-80
2023/04/01 10:19:55;;;;;;;62.33;22.17;;;10.90;99.90;;;;;;5014535;28;20476;-79
2023/04/01 10:22:45;;;;;;;9.70;7.43;;;10.90;99.90;;;;;;5033424;28;20421;-79
2023/04/01 10:25:48;;;;;;;8.13;6.77;;;10.90;99.90;;;;;;5022281;28;20748;-80
2023/04/01 10:28:40;;;;;;;7.40;6.10;;;10.90;99.90;;;;;;5013197;28;20422;-77
2023/04/01 10:31:11;;;;;;;7.17;5.90;;;10.90;99.90;;;;;;5011897;28;20406;-80
2023/04/01 10:34:31;;;;;;;7.37;6.57;;;10.90;99.90;;;;;;5013087;28;20430;-78
2023/04/01 10:36:58;;;;;;;8.63;5.43;;;10.90;99.90;;;;;;4970566;28;20552;-80
2023/04/01 10:39:35;;;;;;;6.57;5.47;;;10.90;99.90;;;;;;5009758;28;20472;-80
2023/04/01 10:42:06;;;;;;;5.67;5.17;;;10.90;99.90;;;;;;5012899;28;20413;-79
2023/04/01 10:44:32;;;;;;;6.07;5.30;;;11.00;99.90;;;;;;5012560;28;20480;-80
2023/04/01 10:47:09;;;;;;;8.97;5.67;;;11.00;99.90;;;;;;5012434;28;20556;-78
2023/04/01 10:49:41;;;;;;;8.10;5.63;;;11.00;99.90;;;;;;5027909;28;20647;-79
2023/04/01 10:52:12;;;;;;;6.03;4.83;;;11.00;99.90;;;;;;5028058;28;20418;-79
2023/04/01 10:55:15;;;;;;;4.83;4.33;;;11.00;99.90;;;;;;5010721;28;20418;-79
2023/04/01 10:58:23;;;;;;;5.90;5.00;;;11.00;99.90;;;;;;5017205;28;20520;-79
2023/04/01 11:00:54;;;;;;;5.10;4.60;;;11.10;99.90;;;;;;5011663;28;20494;-80
2023/04/01 11:03:23;;;;;;;6.43;5.63;;;11.00;99.90;;;;;;5011012;28;20407;-79
2023/04/01 11:06:21;;;;;;;6.20;4.93;;;11.00;99.90;;;;;;5010396;28;20773;-79
2023/04/01 11:09:11;;;;;;;6.47;5.30;;;11.00;99.90;;;;;;4991315;28;20431;-78
2023/04/01 11:12:03;;;;;;;6.40;5.30;;;11.00;99.90;;;;;;5011804;28;20413;-77
2023/04/01 11:14:56;;;;;;;6.33;5.73;;;11.00;99.90;;;;;;4999362;28;20410;-80
2023/04/01 11:17:35;;;;;;;5.50;5.00;;;11.00;99.90;;;;;;5011603;28;20821;-79
2023/04/01 11:20:41;;;;;;;6.03;5.13;;;11.00;99.90;;;;;;5011468;28;20422;-79
2023/04/01 11:23:38;;;;;;;5.87;5.27;;;11.00;99.90;;;;;;4989297;28;20419;-77
2023/04/01 11:26:29;;;;;;;5.20;4.70;;;11.00;99.90;;;;;;4993725;28;20486;-80
2023/04/01 11:29:18;;;;;;;5.50;5.00;;;11.00;99.90;;;;;;4972385;28;20454;-80
2023/04/01 11:32:05;;;;;;;9.53;5.20;;;11.00;99.90;;;;;;4991904;28;20410;-80
2023/04/01 11:34:49;;;;;;;5.90;5.00;;;11.00;99.90;;;;;;5013588;28;20436;-79
2023/04/01 11:37:19;;;;;;;5.73;4.90;;;11.00;99.90;;;;;;5018258;28;20921;-77
2023/04/01 11:40:10;;;;;;;7.00;5.30;;;11.00;99.90;;;;;;5016324;28;20468;-79
2023/04/01 11:43:00;;;;;;;5.60;5.10;;;11.00;99.90;;;;;;5018759;28;20414;-78
2023/04/01 11:46:01;;;;;;;5.83;5.20;;;11.10;99.90;;;;;;5012164;28;20440;-78
2023/04/01 11:48:27;;;;;;;5.77;5.17;;;11.00;99.90;;;;;;5016452;28;20418;-78
2023/04/01 11:51:19;;;;;;;5.83;5.30;;;11.00;99.90;;;;;;4994927;28;20414;-79
2023/04/01 11:53:58;;;;;;;6.00;5.40;;;11.00;99.90;;;;;;5008677;28;20610;-78
2023/04/01 11:57:04;;;;;;;6.03;4.90;;;11.10;99.90;;;;;;5013277;28;20417;-78
2023/04/01 12:00:33;;;;;;;5.00;4.50;;;11.10;99.90;;;;;;5008107;28;20474;-78
2023/04/01 12:03:30;;;;;;;5.60;5.07;;;11.10;99.90;;;;;;4997526;28;20418;-78
2023/04/01 12:06:11;;;;;;;5.50;4.60;;;11.10;99.90;;;;;;4985577;28;20420;-79
2023/04/01 12:09:00;;;;;;;4.90;4.40;;;11.10;99.90;;;;;;5017333;28;20438;-79
2023/04/01 12:11:26;;;;;;;4.53;4.13;;;11.10;99.90;;;;;;5028096;28;20546;-79
2023/04/01 12:14:19;;;;;;;4.50;4.10;;;11.10;99.90;;;;;;5007654;28;20451;-78
2023/04/01 12:17:16;;;;;;;5.60;4.33;;;11.10;99.90;;;;;;5017473;28;20192;-78
2023/04/01 12:20:05;;;;;;;4.60;4.20;;;11.10;99.90;;;;;;5010829;28;20433;-79
2023/04/01 12:22:43;;;;;;;4.50;4.10;;;11.20;99.90;;;;;;5008954;28;20777;-78
2023/04/01 12:25:21;;;;;;;4.80;4.30;;;11.20;99.90;;;;;;5009104;28;20413;-79
2023/04/01 12:28:18;;;;;;;5.53;4.87;;;11.20;99.90;;;;;;5009733;28;20464;-79
2023/04/01 12:31:19;;;;;;;4.37;3.97;;;11.20;99.90;;;;;;5014167;28;20414;-78
2023/04/01 12:34:05;;;;;;;3.77;3.47;;;11.20;99.90;;;;;;5013160;28;20417;-78
2023/04/01 12:36:54;;;;;;;4.30;3.90;;;11.20;99.90;;;;;;5014411;28;20414;-79
2023/04/01 12:39:31;;;;;;;4.57;4.20;;;11.30;99.90;;;;;;5006744;28;21037;-79
2023/04/01 12:42:03;;;;;;;4.43;4.03;;;11.30;99.90;;;;;;5013836;28;20497;-79
2023/04/01 12:44:49;;;;;;;4.60;4.20;;;11.30;99.90;;;;;;5009213;28;20437;-79
2023/04/01 12:47:42;;;;;;;4.70;4.30;;;11.30;99.90;;;;;;5011765;28;21417;-79
2023/04/01 12:50:53;;;;;;;7.00;5.47;;;11.30;99.90;;;;;;5018728;28;20576;-79
2023/04/01 12:53:49;;;;;;;6.70;6.00;;;11.30;99.90;;;;;;5015081;28;20415;-78
2023/04/01 12:56:34;;;;;;;6.30;5.70;;;11.30;99.90;;;;;;4995360;28;20434;-77
2023/04/01 12:59:21;;;;;;;6.73;6.13;;;11.30;99.90;;;;;;4995112;28;20953;-78
2023/04/01 13:01:59;;;;;;;6.67;6.07;;;11.30;99.90;;;;;;4995161;28;20423;-79
2023/04/01 13:04:55;;;;;;;6.10;5.50;;;11.30;99.90;;;;;;4992715;28;20414;-78
2023/04/01 13:08:00;;;;;;;7.93;7.23;;;11.30;99.90;;;;;;5015387;28;20458;-78
2023/04/01 13:10:49;;;;;;;7.50;6.80;;;11.30;99.90;;;;;;4971193;28;20444;-78
2023/04/01 13:13:52;;;;;;;8.17;7.37;;;11.40;99.90;;;;;;4971983;28;20420;-78
2023/04/01 13:16:27;;;;;;;8.27;7.50;;;11.40;99.90;;;;;;4993092;28;20474;-78
2023/04/01 13:19:03;;;;;;;7.40;6.70;;;11.30;99.90;;;;;;4997282;28;21090;-78
2023/04/01 13:21:58;;;;;;;8.50;7.70;;;11.40;99.90;;;;;;5005993;28;20413;-78
2023/04/01 13:24:45;;;;;;;7.40;6.70;;;11.40;99.90;;;;;;5011131;28;20447;-78
2023/04/01 13:27:26;;;;;;;8.77;7.97;;;11.40;99.90;;;;;;4994725;28;20464;-77
2023/04/01 13:30:02;;;;;;;8.30;7.50;;;11.40;99.90;;;;;;4996806;28;20443;-78
2023/04/01 13:32:30;;;;;;;9.23;8.40;;;11.30;99.90;;;;;;4994906;28;20505;-78
2023/04/01 13:35:28;;;;;;;8.20;7.43;;;11.30;99.90;;;;;;5008927;28;20495;-78
2023/04/01 13:38:17;;;;;;;8.37;7.60;;;11.30;99.90;;;;;;4993508;28;20510;-78
2023/04/01 13:40:55;;;;;;;8.93;8.03;;;11.30;99.90;;;;;;4994106;28;20923;-77